Time;durP1;ratioP1;P1;durP2;ratioP2;P2;SDS_P1;SDS_P2;PMS_P1;PMS_P2;Temp;Humidity;BMP_temperature;BMP_pressure;BME280_temperature;BME280_humidity;BME280_pressure;Samples;Min_cycle;Max_cycle;Signal;HPM_P1;HPM_P2
2023/08/18 00:02:27;;;;;;;1.88;1.75;;;;;;;20.24;75.27;101091.03;6313286;23;20020;-89
2023/08/18 00:04:57;;;;;;;1.73;1.63;;;;;;;20.21;75.77;101085.88;6340163;23;20013;-89
2023/08/18 00:07:28;;;;;;;7.47;2.33;;;;;;;20.24;75.47;101091.03;6339629;23;20009;-89
2023/08/18 00:09:58;;;;;;;1.48;1.35;;;;;;;20.24;75.47;101088.38;6338443;23;20303;-89
2023/08/18 00:12:29;;;;;;;2.30;1.88;;;;;;;20.17;76.39;101098.53;6314859;23;20005;-89
2023/08/18 00:14:59;;;;;;;2.03;1.58;;;;;;;20.21;75.19;101094.75;6315213;23;20006;-90
2023/08/18 00:17:30;;;;;;;4.88;1.80;;;;;;;20.17;75.53;101101.22;6316027;23;20080;-90
2023/08/18 00:20:00;;;;;;;1.38;1.27;;;;;;;20.18;75.86;101094.09;6315606;23;20057;-89
2023/08/18 00:22:31;;;;;;;2.97;1.77;;;;;;;20.17;75.46;101084.38;6316333;23;20016;-89
2023/08/18 00:25:01;;;;;;;2.40;2.05;;;;;;;20.10;76.96;101087.44;6312855;23;20005;-89
2023/08/18 00:27:32;;;;;;;2.33;1.70;;;;;;;19.99;77.68;101084.56;6313713;23;20275;-89
2023/08/18 00:30:03;;;;;;;1.90;1.73;;;;;;;20.08;75.87;101093.81;6313821;23;20329;-89
2023/08/18 00:32:34;;;;;;;1.75;1.65;;;;;;;19.96;77.38;101095.38;6337719;23;20071;-90
2023/08/18 00:35:05;;;;;;;1.15;1.15;;;;;;;20.01;76.41;101081.78;6338104;23;20001;-89
2023/08/18 00:37:35;;;;;;;1.65;1.55;;;;;;;20.05;75.75;101084.19;6313660;23;20092;-89
2023/08/18 00:40:06;;;;;;;1.02;0.88;;;;;;;20.06;75.68;101080.56;6338128;23;20037;-89
2023/08/18 00:42:37;;;;;;;2.75;1.58;;;;;;;20.03;75.94;101077.25;6340384;23;20005;-88
2023/08/18 00:45:08;;;;;;;2.47;2.08;;;;;;;19.86;77.84;101076.47;6341712;23;20451;-89
2023/08/18 00:47:39;;;;;;;1.65;1.55;;;;;;;19.95;76.91;101075.06;6339027;23;20213;-90
2023/08/18 00:50:11;;;;;;;8.60;1.70;;;;;;;19.96;78.08;101084.75;6364278;23;20229;-90
2023/08/18 00:52:42;;;;;;;2.88;2.45;;;;;;;19.84;79.01;101077.47;6338114;23;20002;-89
2023/08/18 00:55:13;;;;;;;27.92;2.22;;;;;;;19.79;77.60;101073.28;6373778;23;20048;-89
2023/08/18 00:57:43;;;;;;;1.63;1.38;;;;;;;19.92;78.38;101077.91;6315034;23;20009;-90
2023/08/18 01:00:13;;;;;;;3.35;2.45;;;;;;;19.89;77.04;101075.41;6315471;23;20009;-89
2023/08/18 01:02:44;;;;;;;1.23;1.20;;;;;;;19.86;77.66;101075.63;6315993;23;20100;-90
2023/08/18 01:05:14;;;;;;;1.15;1.13;;;;;;;19.84;76.90;101080.97;6314682;23;20005;-90
2023/08/18 01:07:45;;;;;;;4.68;1.65;;;;;;;19.85;77.06;101076.56;6315651;23;20056;-90
2023/08/18 01:10:16;;;;;;;1.60;1.50;;;;;;;19.85;76.49;101082.72;6337765;23;20092;-89
2023/08/18 01:13:13;;;;;;;2.45;1.83;;;;;;;19.83;76.88;101073.97;6314861;23;20033;-89
2023/08/18 01:15:46;;;;;;;0.93;0.90;;;;;;;19.71;77.91;101070.22;6339553;23;20100;-89
2023/08/18 01:18:16;;;;;;;2.03;1.92;;;;;;;19.82;77.02;101070.44;6315143;23;20005;-89
2023/08/18 01:20:48;;;;;;;3.20;2.15;;;;;;;19.81;76.54;101067.88;6338731;23;20459;-88
2023/08/18 01:23:19;;;;;;;3.92;2.13;;;;;;;19.78;78.89;101066.25;6312625;23;20208;-89
2023/08/18 01:25:49;;;;;;;2.53;2.33;;;;;;;19.74;77.50;101058.56;6326337;23;20052;-89
2023/08/18 01:28:19;;;;;;;3.28;2.58;;;;;;;19.78;76.89;101058.28;6338973;23;20350;-89
2023/08/18 01:30:52;;;;;;;1.65;1.50;;;;;;;19.81;76.81;101054.56;6338448;23;20006;-89
2023/08/18 01:33:43;;;;;;;3.05;2.53;;;;;;;19.79;76.52;101051.13;6315209;23;20013;-89
2023/08/18 01:36:20;;;;;;;5.68;2.60;;;;;;;19.74;77.26;101048.75;6313880;23;20033;-89
2023/08/18 01:38:52;;;;;;;2.85;2.15;;;;;;;19.72;76.50;101042.66;6314489;23;20130;-90
2023/08/18 01:41:24;;;;;;;1.85;1.35;;;;;;;19.74;77.10;101043.41;6313787;23;20076;-89
2023/08/18 01:43:55;;;;;;;1.20;1.10;;;;;;;19.67;77.27;101042.09;6314208;23;20044;-90
2023/08/18 01:46:26;;;;;;;8.43;3.55;;;;;;;19.67;77.90;101034.09;6313947;23;20002;-90
2023/08/18 01:48:56;;;;;;;1.92;1.35;;;;;;;19.67;77.69;101036.75;6314847;23;20017;-88
2023/08/18 01:51:27;;;;;;;1.02;1.00;;;;;;;19.72;77.94;101042.66;6313836;23;20279;-89
2023/08/18 01:53:57;;;;;;;3.08;2.88;;;;;;;19.37;81.38;101040.31;6337823;23;20367;-90
2023/08/18 01:56:27;;;;;;;4.72;3.05;;;;;;;19.39;80.36;101043.72;6374010;23;20013;-89
2023/08/18 01:58:59;;;;;;;4.85;2.42;;;;;;;19.50;78.56;101035.97;6338267;23;20041;-88
2023/08/18 02:01:30;;;;;;;4.55;2.50;;;;;;;19.56;79.03;101033.88;6314932;23;20040;-89
2023/08/18 02:04:00;;;;;;;1.20;1.10;;;;;;;19.58;77.61;101039.97;6375543;23;20351;-89
2023/08/18 02:06:31;;;;;;;1.85;1.75;;;;;;;19.51;79.38;101039.47;6339102;23;19997;-89
2023/08/18 02:09:03;;;;;;;2.10;1.95;;;;;;;19.40;81.25;101033.97;6338051;23;20006;-89
2023/08/18 02:11:33;;;;;;;1.83;1.70;;;;;;;19.35;80.98;101043.06;6310978;23;20009;-90
2023/08/18 02:14:04;;;;;;;1.42;1.33;;;;;;;19.41;80.14;101041.00;6337900;23;20006;-89
2023/08/18 02:16:34;;;;;;;6.45;2.55;;;;;;;19.48;79.09;101039.69;6372517;23;20048;-90
2023/08/18 02:19:05;;;;;;;2.67;1.50;;;;;;;19.36;82.04;101041.25;6311705;23;20179;-88
2023/08/18 02:21:35;;;;;;;2.05;1.52;;;;;;;19.32;81.38;101037.94;6337688;23;20015;-91
2023/08/18 02:24:05;;;;;;;3.15;2.85;;;;;;;19.32;82.09;101037.06;6360224;23;20092;-89
2023/08/18 02:26:36;;;;;;;3.03;2.55;;;;;;;19.38;79.53;101042.00;6339481;23;20479;-89
2023/08/18 02:29:07;;;;;;;2.53;2.35;;;;;;;19.37;80.63;101040.31;6338518;23;20009;-90
2023/08/18 02:31:37;;;;;;;2.42;1.88;;;;;;;19.40;80.15;101028.63;6314508;23;20771;-89
2023/08/18 02:34:08;;;;;;;3.47;2.33;;;;;;;19.27;82.22;101026.69;6338889;23;20085;-91
2023/08/18 02:36:38;;;;;;;2.05;1.88;;;;;;;19.30;82.18;101018.53;6336316;23;20002;-90
2023/08/18 02:39:09;;;;;;;3.15;2.47;;;;;;;19.43;80.61;101026.66;6335663;23;20014;-89
2023/08/18 02:41:39;;;;;;;4.13;2.75;;;;;;;19.26;83.46;101021.47;6343489;23;20005;-89
2023/08/18 02:44:09;;;;;;;4.03;2.08;;;;;;;19.33;81.28;101030.78;6338475;23;20060;-88
2023/08/18 02:46:40;;;;;;;5.00;2.75;;;;;;;19.35;80.23;101018.25;6335571;23;20370;-90
2023/08/18 02:49:10;;;;;;;8.82;3.22;;;;;;;19.40;80.55;101018.84;6310917;23;20017;-89
2023/08/18 02:51:40;;;;;;;2.45;1.48;;;;;;;19.38;82.18;101028.69;6369500;23;20041;-89
2023/08/18 02:54:11;;;;;;;3.35;2.83;;;;;;;19.41;80.65;101027.69;6334959;23;20013;-89
2023/08/18 02:56:41;;;;;;;3.33;2.30;;;;;;;19.42;80.83;101026.75;6335781;23;20041;-89
2023/08/18 02:59:12;;;;;;;8.30;4.32;;;;;;;19.45;79.89;101027.41;6337890;23;20053;-91
2023/08/18 03:01:42;;;;;;;3.35;2.45;;;;;;;19.47;79.89;101036.13;6335829;23;20097;-88
2023/08/18 03:04:15;;;;;;;6.45;2.38;;;;;;;19.33;83.18;101038.78;6336421;23;20015;-88
2023/08/18 03:06:45;;;;;;;5.60;4.25;;;;;;;19.40;79.90;101039.28;6337336;23;20005;-89
2023/08/18 03:09:16;;;;;;;3.70;3.17;;;;;;;19.45;80.09;101029.19;6336341;23;20115;-90
2023/08/18 03:11:47;;;;;;;1.42;1.33;;;;;;;19.47;79.98;101022.84;6338372;23;20013;-88
2023/08/18 03:14:17;;;;;;;3.90;2.45;;;;;;;19.28;84.21;101025.75;6373870;23;20017;-89
2023/08/18 03:16:47;;;;;;;3.08;2.83;;;;;;;19.32;81.78;101027.28;6336318;23;20071;-89
2023/08/18 03:19:18;;;;;;;2.63;2.42;;;;;;;19.35;82.48;101020.94;6312006;23;20094;-90
2023/08/18 03:21:48;;;;;;;2.22;1.05;;;;;;;19.28;82.08;101024.91;6312312;23;20252;-89
2023/08/18 03:24:18;;;;;;;6.45;3.90;;;;;;;19.35;83.19;101015.59;6309905;23;20026;-90
2023/08/18 03:26:49;;;;;;;3.58;3.28;;;;;;;19.32;82.62;101024.63;6311319;23;20006;-89
2023/08/18 03:29:19;;;;;;;4.07;2.72;;;;;;;19.19;85.08;101020.97;6333849;23;20046;-90
2023/08/18 03:31:49;;;;;;;3.17;2.67;;;;;;;19.23;83.96;101017.19;6345971;23;20021;-89
2023/08/18 03:34:20;;;;;;;3.28;2.80;;;;;;;19.22;84.02;101011.94;6338844;23;20001;-89
2023/08/18 03:36:50;;;;;;;4.63;2.08;;;;;;;19.33;83.31;101020.16;6321106;23;20009;-90
2023/08/18 03:39:21;;;;;;;3.40;2.35;;;;;;;19.13;85.97;101016.00;6353196;23;19997;-90
2023/08/18 03:41:51;;;;;;;2.78;2.58;;;;;;;19.27;82.35;101018.69;6359300;23;20016;-90
2023/08/18 03:44:21;;;;;;;3.28;2.58;;;;;;;19.15;83.75;101014.97;6338569;23;20014;-89
2023/08/18 03:46:52;;;;;;;3.72;2.58;;;;;;;19.25;82.38;101022.41;6362324;23;20033;-90
2023/08/18 03:49:22;;;;;;;2.17;1.67;;;;;;;19.28;82.07;101024.91;6363125;23;20101;-90
2023/08/18 03:51:53;;;;;;;2.53;2.03;;;;;;;19.32;82.68;101021.97;6338795;23;20058;-89
2023/08/18 03:54:23;;;;;;;5.55;3.03;;;;;;;19.34;81.23;101024.53;6363202;23;19997;-90
2023/08/18 03:56:53;;;;;;;1.63;1.52;;;;;;;19.33;81.77;101034.31;6400109;23;20008;-90
2023/08/18 03:59:24;;;;;;;4.30;3.47;;;;;;;19.28;82.22;101024.91;6364378;23;19998;-91
2023/08/18 04:01:54;;;;;;;1.88;1.77;;;;;;;19.34;81.48;101024.53;6362888;23;20022;-90
2023/08/18 04:04:24;;;;;;;4.47;3.45;;;;;;;19.03;86.82;101021.84;6364002;23;20014;-90
2023/08/18 04:06:55;;;;;;;2.20;1.85;;;;;;;19.08;86.63;101026.91;6338704;23;20069;-89
2023/08/18 04:09:26;;;;;;;3.53;2.45;;;;;;;19.17;83.98;101029.03;6363227;23;19998;-88
2023/08/18 04:11:57;;;;;;;3.15;2.78;;;;;;;19.27;82.69;101033.81;6339261;23;20020;-89
2023/08/18 04:14:27;;;;;;;5.88;2.33;;;;;;;19.22;83.13;101030.56;6375892;23;20032;-88
2023/08/18 04:16:57;;;;;;;3.85;3.47;;;;;;;19.18;84.48;101032.53;6365593;23;20005;-89
2023/08/18 04:19:28;;;;;;;1.30;1.20;;;;;;;19.10;87.30;101030.34;6365616;23;20021;-89
2023/08/18 04:21:58;;;;;;;2.80;2.58;;;;;;;19.09;86.41;101027.78;6364416;23;20057;-91
2023/08/18 04:24:28;;;;;;;1.95;1.52;;;;;;;19.18;83.66;101024.56;6365887;23;20028;-91
2023/08/18 04:26:59;;;;;;;2.65;2.45;;;;;;;19.16;84.17;101026.47;6365725;23;20041;-91
2023/08/18 04:29:29;;;;;;;2.83;1.95;;;;;;;19.16;85.52;101023.81;6341230;23;20001;-90
2023/08/18 04:32:00;;;;;;;4.47;2.33;;;;;;;19.23;83.12;101027.81;6339722;23;20009;-91
2023/08/18 04:34:30;;;;;;;2.63;2.42;;;;;;;19.22;86.35;101033.22;6340988;23;20053;-91
2023/08/18 04:37:02;;;;;;;7.95;2.95;;;;;;;19.24;83.53;101029.53;6341234;23;20025;-91
2023/08/18 04:39:32;;;;;;;2.88;2.13;;;;;;;19.02;88.94;101029.94;6365413;23;20012;-92
2023/08/18 04:42:02;;;;;;;2.92;2.35;;;;;;;19.16;84.82;101027.31;6365573;23;20041;-91
2023/08/18 04:44:33;;;;;;;1.85;1.73;;;;;;;19.16;84.54;101022.00;6339043;23;20040;-90
2023/08/18 04:47:05;;;;;;;2.85;2.30;;;;;;;19.05;88.67;101027.06;6320540;23;20033;-90
2023/08/18 04:49:35;;;;;;;4.18;1.92;;;;;;;19.12;86.19;101027.59;6320033;23;20001;-90
2023/08/18 04:52:07;;;;;;;1.25;1.20;;;;;;;19.14;85.38;101028.38;6320661;23;20196;-90
2023/08/18 04:54:38;;;;;;;1.73;1.63;;;;;;;19.23;83.49;101025.16;6319406;23;20009;-91
2023/08/18 04:57:08;;;;;;;5.57;2.05;;;;;;;19.13;85.80;101026.66;6316252;23;20015;-91
2023/08/18 04:59:38;;;;;;;3.45;2.42;;;;;;;19.24;84.53;101028.66;6349118;23;20005;-90
2023/08/18 05:02:09;;;;;;;3.70;2.58;;;;;;;19.31;83.49;101028.22;6341743;23;20444;-90
2023/08/18 05:04:39;;;;;;;3.10;2.58;;;;;;;19.29;83.70;101018.63;6381077;23;20040;-90
2023/08/18 05:07:10;;;;;;;1.65;1.55;;;;;;;19.23;83.44;101021.63;6343717;23;20005;-91
2023/08/18 05:09:40;;;;;;;1.65;1.55;;;;;;;19.19;85.31;101021.84;6343803;23;20192;-91
2023/08/18 05:12:10;;;;;;;5.85;2.58;;;;;;;19.18;86.19;101021.91;6342565;23;20013;-91
2023/08/18 05:14:41;;;;;;;2.75;2.50;;;;;;;19.08;87.28;101024.25;6341669;23;20005;-90
2023/08/18 05:17:11;;;;;;;7.50;1.65;;;;;;;18.94;88.24;101021.53;6341617;23;20498;-91
2023/08/18 05:19:41;;;;;;;3.60;2.88;;;;;;;19.14;84.66;101015.91;6316085;23;20012;-90
2023/08/18 05:22:12;;;;;;;2.58;1.83;;;;;;;19.10;86.84;101025.03;6341487;23;20029;-90
2023/08/18 05:24:42;;;;;;;2.22;2.03;;;;;;;19.19;84.88;101023.63;6352319;23;20120;-90
2023/08/18 05:27:12;;;;;;;1.33;1.33;;;;;;;19.08;86.34;101026.91;6346925;23;20008;-90
2023/08/18 05:29:43;;;;;;;2.03;1.52;;;;;;;18.96;88.08;101036.47;6321014;23;20006;-90
2023/08/18 05:32:13;;;;;;;3.15;2.28;;;;;;;18.97;88.57;101038.16;6340912;23;20029;-90
2023/08/18 05:34:44;;;;;;;3.92;1.95;;;;;;;18.97;89.16;101032.84;6350196;23;20039;-91
2023/08/18 05:37:17;;;;;;;2.65;1.80;;;;;;;19.03;87.29;101032.50;6322599;23;19997;-90
2023/08/18 05:39:47;;;;;;;1.23;1.05;;;;;;;19.10;85.66;101027.69;6317849;23;20009;-90
2023/08/18 05:42:18;;;;;;;3.47;2.08;;;;;;;19.17;85.67;101031.69;6342269;23;20013;-90
2023/08/18 05:44:48;;;;;;;1.77;1.27;;;;;;;19.11;86.47;101028.53;6341652;23;20009;-90
2023/08/18 05:47:18;;;;;;;4.82;2.63;;;;;;;19.05;86.92;101024.41;6338138;23;20009;-89
2023/08/18 05:49:49;;;;;;;2.03;1.90;;;;;;;19.11;86.10;101032.06;6374166;23;20440;-89
2023/08/18 05:52:19;;;;;;;2.38;2.20;;;;;;;19.09;87.57;101033.94;6338934;23;20025;-90
2023/08/18 05:54:49;;;;;;;3.58;2.25;;;;;;;19.08;85.85;101029.56;6364018;23;19998;-90
2023/08/18 05:57:20;;;;;;;2.72;2.25;;;;;;;19.19;84.36;101032.47;6343208;23;20001;-90
2023/08/18 05:59:50;;;;;;;2.75;2.40;;;;;;;19.19;87.43;101029.81;6342135;23;20329;-90
2023/08/18 06:02:21;;;;;;;2.42;1.98;;;;;;;19.22;85.49;101028.78;6336396;23;20016;-90
2023/08/18 06:04:51;;;;;;;1.98;1.35;;;;;;;19.21;85.49;101029.72;6374012;23;20462;-90
2023/08/18 06:07:23;;;;;;;5.00;2.40;;;;;;;19.25;86.72;101033.91;6338849;23;20052;-90
2023/08/18 06:09:53;;;;;;;4.45;3.03;;;;;;;19.38;86.44;101030.53;6338094;23;20029;-90
2023/08/18 06:12:24;;;;;;;5.03;3.58;;;;;;;19.26;86.22;101026.78;6338290;23;20105;-90
2023/08/18 06:14:54;;;;;;;2.72;2.03;;;;;;;19.21;87.92;101024.41;6340518;23;20044;-90
2023/08/18 06:17:24;;;;;;;3.17;1.92;;;;;;;19.24;87.06;101018.91;6338811;23;20364;-90
2023/08/18 06:19:55;;;;;;;3.25;2.22;;;;;;;19.33;86.62;101022.81;6338566;23;20005;-90
2023/08/18 06:22:25;;;;;;;6.43;3.08;;;;;;;19.34;85.05;101020.06;6348434;23;20010;-91
2023/08/18 06:24:56;;;;;;;2.53;1.42;;;;;;;19.37;84.87;101021.69;6375174;23;20009;-91
2023/08/18 06:27:26;;;;;;;2.20;1.80;;;;;;;19.34;86.12;101024.53;6338647;23;20012;-91
2023/08/18 06:29:56;;;;;;;2.00;1.88;;;;;;;19.44;84.71;101020.38;6348013;23;20052;-91
2023/08/18 06:32:27;;;;;;;2.15;1.90;;;;;;;19.50;83.99;101025.31;6375623;23;20083;-90
2023/08/18 06:34:57;;;;;;;3.22;1.65;;;;;;;19.41;85.35;101019.72;6341869;23;20604;-91
2023/08/18 06:37:28;;;;;;;2.15;2.00;;;;;;;19.53;83.88;101018.97;6345866;23;20025;-89
2023/08/18 06:39:59;;;;;;;2.80;2.60;;;;;;;19.46;86.83;101033.59;6323907;23;20490;-90
2023/08/18 06:42:29;;;;;;;3.65;3.35;;;;;;;19.55;84.05;101035.69;6345152;23;20009;-91
2023/08/18 06:44:59;;;;;;;3.17;2.30;;;;;;;19.60;83.88;101041.59;6342392;23;20001;-90
2023/08/18 06:47:30;;;;;;;4.72;2.40;;;;;;;19.56;85.22;101039.19;6342164;23;20013;-91
2023/08/18 06:50:01;;;;;;;2.33;1.08;;;;;;;19.63;84.00;101041.41;6330150;23;20006;-91
2023/08/18 06:52:34;;;;;;;1.13;1.10;;;;;;;19.54;85.63;101041.13;6363891;23;20237;-90
2023/08/18 06:55:05;;;;;;;2.25;2.08;;;;;;;19.61;86.55;101037.13;6339774;23;19997;-91
2023/08/18 06:57:35;;;;;;;1.83;1.73;;;;;;;19.69;84.41;101034.00;6352427;23;20014;-90
2023/08/18 07:00:09;;;;;;;2.38;2.03;;;;;;;19.76;84.69;101030.00;6354254;23;20006;-91
2023/08/18 07:02:40;;;;;;;1.80;1.50;;;;;;;19.54;88.26;101038.47;6302338;23;20634;-91
2023/08/18 07:05:12;;;;;;;3.60;2.65;;;;;;;19.54;88.73;101035.78;6339327;23;20009;-90
2023/08/18 07:07:43;;;;;;;2.38;2.17;;;;;;;19.67;85.93;101044.75;6339417;23;20046;-91
2023/08/18 07:10:13;;;;;;;2.38;2.15;;;;;;;19.75;85.27;101034.50;6313886;23;20379;-92
2023/08/18 07:12:43;;;;;;;3.35;2.17;;;;;;;19.84;86.04;101041.03;6337730;23;20010;-91
2023/08/18 07:15:14;;;;;;;2.85;2.00;;;;;;;19.63;88.24;101030.78;6313862;23;20009;-91
2023/08/18 07:17:44;;;;;;;2.83;2.05;;;;;;;19.72;86.75;101026.69;6313667;23;20040;-90
2023/08/18 07:20:15;;;;;;;2.25;2.13;;;;;;;19.66;88.78;101029.72;6310503;23;20008;-91
2023/08/18 07:22:46;;;;;;;2.83;2.55;;;;;;;19.62;88.88;101028.22;6318772;23;20021;-90
2023/08/18 07:25:16;;;;;;;5.80;2.88;;;;;;;19.79;85.74;101022.69;6344287;23;20005;-91
2023/08/18 07:27:47;;;;;;;2.30;0.98;;;;;;;19.83;85.91;101026.06;6319672;23;20044;-89
2023/08/18 07:30:17;;;;;;;2.13;2.00;;;;;;;19.89;85.37;101033.69;6343493;23;20006;-90
2023/08/18 07:32:47;;;;;;;2.70;2.50;;;;;;;19.93;84.28;101037.84;6340622;23;20009;-91
2023/08/18 07:35:18;;;;;;;3.65;1.80;;;;;;;19.96;84.51;101039.47;6344609;23;20021;-91
2023/08/18 07:37:49;;;;;;;1.75;1.65;;;;;;;19.91;86.46;101033.59;6316980;23;20006;-91
2023/08/18 07:40:19;;;;;;;4.75;2.70;;;;;;;20.06;85.02;101029.97;6314507;23;20496;-91
2023/08/18 07:42:50;;;;;;;2.30;2.08;;;;;;;20.11;84.19;101038.53;6315953;23;20036;-92
2023/08/18 07:45:20;;;;;;;5.30;2.58;;;;;;;20.10;86.12;101031.50;6315780;23;20406;-91
2023/08/18 07:47:51;;;;;;;2.67;2.47;;;;;;;20.17;84.76;101036.44;6346110;23;20037;-91
2023/08/18 07:50:22;;;;;;;3.10;2.85;;;;;;;20.21;84.46;101024.63;6320206;23;20431;-90
2023/08/18 07:52:52;;;;;;;3.50;2.53;;;;;;;20.26;84.69;101022.53;6347708;23;20009;-91
2023/08/18 07:55:23;;;;;;;3.00;2.65;;;;;;;20.24;86.08;101029.75;6340867;23;20041;-91
2023/08/18 07:57:53;;;;;;;7.82;4.30;;;;;;;20.28;85.67;101031.28;6336825;23;20017;-92
2023/08/18 08:00:26;;;;;;;10.52;4.45;;;;;;;20.33;85.84;101033.66;6344682;23;20016;-92
2023/08/18 08:02:57;;;;;;;;;;;;;;;20.33;86.47;101039.84;6319261;23;20065;-91
2023/08/18 08:05:27;;;;;;;3.00;2.78;;;;;;;20.35;86.16;101032.63;6318319;23;20026;-92
2023/08/18 08:07:58;;;;;;;4.88;3.58;;;;;;;20.33;85.69;101021.19;6317521;23;20024;-92
2023/08/18 08:10:28;;;;;;;3.80;3.50;;;;;;;20.33;88.15;101029.19;6319250;23;20015;-91
2023/08/18 08:12:59;;;;;;;6.15;4.45;;;;;;;20.34;88.53;101030.91;6319468;23;20008;-91
2023/08/18 08:15:29;;;;;;;4.85;4.30;;;;;;;20.43;86.42;101025.00;6340956;23;20155;-90
2023/08/18 08:18:00;;;;;;;3.03;2.83;;;;;;;20.49;87.32;101031.75;6380469;23;20395;-91
2023/08/18 08:20:30;;;;;;;4.28;3.33;;;;;;;20.50;87.84;101029.91;6343765;23;20005;-90
2023/08/18 08:23:00;;;;;;;6.57;4.60;;;;;;;20.64;85.56;101043.22;6311090;23;20356;-90
2023/08/18 08:25:32;;;;;;;2.03;1.52;;;;;;;20.56;88.28;101033.06;6310223;23;20340;-89
2023/08/18 08:28:03;;;;;;;7.35;2.40;;;;;;;20.72;86.17;101035.56;6334219;23;20010;-90
2023/08/18 08:30:33;;;;;;;6.47;1.83;;;;;;;20.78;86.26;101053.00;6309656;23;20100;-90
2023/08/18 08:33:04;;;;;;;3.13;1.67;;;;;;;20.91;84.87;101061.06;6310306;23;20456;-91
2023/08/18 08:35:34;;;;;;;2.95;1.77;;;;;;;20.89;85.51;101052.31;6334593;23;20037;-91
2023/08/18 08:38:05;;;;;;;1.58;1.48;;;;;;;20.90;85.42;101046.91;6335775;23;20006;-90
2023/08/18 08:40:36;;;;;;;2.40;2.20;;;;;;;21.01;86.01;101054.19;6310105;23;20064;-90
2023/08/18 08:43:06;;;;;;;2.65;2.30;;;;;;;20.81;87.94;101051.97;6335508;23;20519;-90
2023/08/18 08:45:38;;;;;;;1.48;1.38;;;;;;;20.98;86.78;101041.03;6335896;23;20037;-90
2023/08/18 08:48:11;;;;;;;1.42;1.30;;;;;;;21.16;85.90;101038.09;6335775;23;20095;-89
2023/08/18 08:50:47;;;;;;;2.30;2.15;;;;;;;21.19;86.23;101033.41;6312363;23;20024;-91
2023/08/18 08:53:25;;;;;;;2.55;2.30;;;;;;;21.30;85.64;101032.69;6310674;23;20010;-90
2023/08/18 08:56:01;;;;;;;4.55;1.75;;;;;;;21.37;86.75;101033.97;6311233;23;20054;-90
2023/08/18 08:58:32;;;;;;;1.33;1.23;;;;;;;21.41;86.30;101031.13;6310589;23;20093;-90
2023/08/18 09:01:09;;;;;;;1.52;1.23;;;;;;;21.51;85.54;101032.22;6310190;23;20017;-91
2023/08/18 09:03:40;;;;;;;1.50;0.90;;;;;;;21.57;86.33;101036.28;6334856;23;20100;-91
2023/08/18 09:06:11;;;;;;;2.78;2.00;;;;;;;21.56;85.74;101030.06;6310410;23;20112;-91
2023/08/18 09:08:41;;;;;;;1.10;1.02;;;;;;;21.68;86.08;101023.94;6337055;23;20078;-91
2023/08/18 09:11:12;;;;;;;1.58;1.40;;;;;;;21.76;85.28;101034.06;6309298;23;20016;-90
2023/08/18 09:13:42;;;;;;;2.25;1.10;;;;;;;21.79;85.00;101030.31;6334428;23;20435;-91
2023/08/18 09:16:13;;;;;;;2.22;1.63;;;;;;;21.85;85.15;101035.25;6334904;23;20336;-91
2023/08/18 09:18:45;;;;;;;0.80;0.80;;;;;;;21.84;84.82;101023.69;6309403;23;20013;-90
2023/08/18 09:21:16;;;;;;;3.22;2.67;;;;;;;21.98;84.42;101025.41;6310124;23;20005;-91
2023/08/18 09:23:46;;;;;;;1.75;1.52;;;;;;;22.06;84.70;101026.66;6310258;23;20021;-91
2023/08/18 09:26:16;;;;;;;3.83;1.70;;;;;;;22.06;85.67;101030.22;6309741;23;20001;-90
2023/08/18 09:28:47;;;;;;;2.05;1.77;;;;;;;22.14;85.07;101014.50;6334359;23;20311;-91
2023/08/18 09:31:21;;;;;;;2.63;1.42;;;;;;;22.25;84.44;101016.38;6332942;23;20006;-90
2023/08/18 09:33:51;;;;;;;3.95;1.85;;;;;;;22.30;84.26;101016.91;6333619;23;20008;-91
2023/08/18 09:36:22;;;;;;;1.33;1.27;;;;;;;22.30;84.06;101011.56;6338727;23;20503;-90
2023/08/18 09:38:52;;;;;;;1.40;1.30;;;;;;;22.38;83.68;101004.78;6312529;23;20056;-91
2023/08/18 09:41:23;;;;;;;2.28;1.90;;;;;;;22.40;84.03;101016.28;6334317;23;20013;-91
2023/08/18 09:43:53;;;;;;;1.90;1.33;;;;;;;22.45;83.80;101006.94;6336686;23;20088;-91
2023/08/18 09:46:26;;;;;;;1.85;1.75;;;;;;;22.47;84.79;101009.50;6335004;23;20006;-91
2023/08/18 09:48:58;;;;;;;1.63;1.52;;;;;;;22.59;83.61;101003.28;6334976;23;20534;-91
2023/08/18 09:51:29;;;;;;;1.08;1.05;;;;;;;22.63;83.93;100994.03;6309608;23;20010;-91
2023/08/18 09:54:04;;;;;;;2.08;1.88;;;;;;;22.67;83.33;100999.19;6370353;23;20519;-91
2023/08/18 09:56:38;;;;;;;2.75;1.67;;;;;;;22.75;84.90;101002.13;6311992;23;20092;-91
2023/08/18 09:59:21;;;;;;;0.90;0.88;;;;;;;22.79;84.38;100992.91;6313746;23;20254;-90
2023/08/18 10:01:52;;;;;;;4.15;2.00;;;;;;;22.85;83.52;100995.09;6309046;23;20005;-91
2023/08/18 10:04:25;;;;;;;1.05;0.75;;;;;;;22.92;83.67;100990.16;6310059;23;20451;-91
2023/08/18 10:06:55;;;;;;;2.35;2.15;;;;;;;23.00;83.47;100993.13;6334395;23;20156;-91
2023/08/18 10:09:28;;;;;;;2.63;0.90;;;;;;;23.06;83.19;100989.97;6333014;23;20206;-90
2023/08/18 10:11:58;;;;;;;1.75;1.63;;;;;;;23.07;82.92;100985.47;6308392;23;20529;-90
2023/08/18 10:14:31;;;;;;;3.03;2.25;;;;;;;23.13;82.66;100979.66;6309234;23;20061;-91
2023/08/18 10:17:03;;;;;;;1.67;1.20;;;;;;;23.15;82.98;100983.06;6310060;23;20009;-91
2023/08/18 10:19:52;;;;;;;3.13;1.97;;;;;;;23.21;82.32;100979.94;6310107;23;20399;-91
2023/08/18 10:22:25;;;;;;;1.25;1.15;;;;;;;23.31;82.39;100977.41;6333546;23;20021;-91
2023/08/18 10:24:56;;;;;;;1.13;1.10;;;;;;;23.38;82.56;100977.81;6343254;23;20009;-90
2023/08/18 10:27:26;;;;;;;1.33;1.23;;;;;;;23.43;82.47;100975.59;6308487;23;20035;-91
2023/08/18 10:29:59;;;;;;;2.67;2.22;;;;;;;23.51;82.70;100967.84;6316596;23;20068;-91
2023/08/18 10:32:31;;;;;;;;;;;;;;;23.63;82.11;100966.03;6315129;23;20025;-91
2023/08/18 10:35:21;;;;;;;0.75;0.75;;;;;;;23.71;82.56;100960.06;6316231;23;19908;-92
2023/08/18 10:38:03;;;;;;;1.33;1.23;;;;;;;23.76;82.23;100959.69;6316550;23;20009;-92
2023/08/18 10:40:35;;;;;;;1.13;1.13;;;;;;;23.84;82.63;100958.09;6316138;23;20240;-91
2023/08/18 10:43:11;;;;;;;3.00;1.13;;;;;;;23.88;82.52;100948.88;6314346;23;20460;-91
2023/08/18 10:45:42;;;;;;;2.97;1.30;;;;;;;23.94;81.98;100960.09;6315224;23;20020;-92
2023/08/18 10:48:14;;;;;;;2.42;2.13;;;;;;;23.89;80.54;100961.28;6338736;23;20010;-91
2023/08/18 10:50:46;;;;;;;1.92;1.52;;;;;;;24.10;81.98;100957.03;6315142;23;20109;-92
2023/08/18 10:53:16;;;;;;;0.85;0.82;;;;;;;24.11;82.13;100948.84;6339805;23;20006;-92
2023/08/18 10:55:47;;;;;;;0.98;0.98;;;;;;;24.11;81.03;100943.50;6317121;23;20023;-93
2023/08/18 10:58:17;;;;;;;1.27;0.98;;;;;;;24.26;81.12;100944.09;6318696;23;20069;-92
2023/08/18 11:00:50;;;;;;;1.08;1.08;;;;;;;24.26;79.90;100943.22;6345714;23;20100;-93
2023/08/18 11:03:20;;;;;;;0.90;0.90;;;;;;;24.29;80.35;100940.31;6323020;23;20005;-93
2023/08/18 11:05:51;;;;;;;0.77;0.70;;;;;;;24.38;79.10;100939.53;6314994;23;20313;-92
2023/08/18 11:08:21;;;;;;;2.05;1.73;;;;;;;24.47;78.84;100938.78;6312042;23;20024;-90
2023/08/18 11:10:52;;;;;;;1.63;1.50;;;;;;;24.49;79.28;100938.66;6346855;23;20009;-90
2023/08/18 11:13:25;;;;;;;1.30;1.05;;;;;;;24.54;77.66;100930.22;6342297;23;20041;-91
2023/08/18 11:15:56;;;;;;;1.90;1.70;;;;;;;24.59;78.41;100925.31;6348424;23;20008;-91
2023/08/18 11:18:27;;;;;;;1.35;1.25;;;;;;;24.62;75.82;100927.75;6324015;23;20008;-91
2023/08/18 11:21:03;;;;;;;1.13;1.02;;;;;;;24.72;75.58;100920.69;6357177;23;19990;-92
2023/08/18 11:23:34;;;;;;;1.13;1.02;;;;;;;24.72;76.61;100915.31;6354761;23;20013;-92
2023/08/18 11:26:04;;;;;;;11.80;2.15;;;;;;;24.72;77.00;100914.44;6331416;23;20012;-92
2023/08/18 11:28:35;;;;;;;1.42;1.30;;;;;;;24.74;76.17;100905.31;6335780;23;20017;-91
2023/08/18 11:31:08;;;;;;;1.60;1.50;;;;;;;24.88;75.74;100908.66;6335220;23;19997;-91
2023/08/18 11:33:41;;;;;;;;;;;;;;;24.99;75.39;100911.28;6333923;23;20015;-93
2023/08/18 11:52:21;;;;;;;2.75;2.20;;;;;;;25.19;74.49;100884.53;6386821;23;20021;-92
2023/08/18 11:54:56;;;;;;;13.65;2.75;;;;;;;25.34;73.89;100885.88;6346166;23;20108;-92
2023/08/18 11:57:27;;;;;;;1.00;0.70;;;;;;;25.42;74.25;100880.72;6340997;23;20001;-90
2023/08/18 11:59:57;;;;;;;2.97;1.85;;;;;;;25.45;74.58;100875.09;6356284;23;20009;-90
2023/08/18 12:02:29;;;;;;;0.75;0.60;;;;;;;25.65;73.00;100883.22;6340835;23;20354;-94